Portada
METAR-TAF:

METAR-TAF

Aeroports :

Chandigar, Índia

latitud: 30-40-29N, longitud: 76-47-26E, altitud: 314 m

METAR: manca

Hora: 11:55 (06:25 UTC)

Pronòstic

L'informe es va fer fa 2 hores i 55 minuts, a les 03:30 UTC
Pronòstic vàlid del 31 a les 06 UTC al 31 a les 18 UTC
Vent 8 kt del Sud-Est
Visibilitat: 6000 m
Núvols disperses a una alçada de 2500 ft
Cel ennuvolat a una alçada de 8000 ft
Temporalment
l' 31 a les 09 UTC al 31 a les 12 UTC
Vent 15 kt del Sud-Est amb ràfegues de 25 kt
Visibilitat: 3000 m
Núvols disperses a una alçada de 1500 ft
Escasses núvols a una alçada de 3000 ft, Cumulonimbus.
Cel cobert a una alçada de 8000 ft
tempesta, pluja

TAF: VICG 310330Z 3106/3118 14008KT 6000 SCT025 BKN080 TEMPO 3109/3112 14015G25KT 3000 TSRA SCT015 FEW030CB OVC080

Observacions i pronòstics meteorològics de més de 4000 aeroports (METAR i TAF).

Les estacions disponibles són els punts grocs i vermells al mapa.

Posi el ratolí al punt desitjat per veure el nom de l'estació.

Feu clic per veure les observacions i els pronòstics meteorològics.

Per canviar el mapa: feu clic els botons verds amb una creu de color negre per apropar; al botó verd amb un guió per allunyar la imatge; o en les fletxes verdes per a mapes adjacents.


METAR-TAF: